createdAt,value
2019-03-06T00:00:30.396Z,6.45
2019-03-06T00:01:30.341Z,6.28
2019-03-06T00:02:30.323Z,6.28
2019-03-06T00:03:30.306Z,6.20
2019-03-06T00:04:30.296Z,6.20
2019-03-06T00:05:30.324Z,6.12
2019-03-06T00:06:30.286Z,6.09
2019-03-06T00:07:30.269Z,6.12
2019-03-06T00:08:30.279Z,6.12
2019-03-06T00:09:30.245Z,6.09
2019-03-06T00:10:30.277Z,6.16
2019-03-06T00:11:30.256Z,6.04
2019-03-06T00:12:30.216Z,6.02
2019-03-06T00:13:30.201Z,6.08
2019-03-06T00:14:30.191Z,6.04
2019-03-06T00:15:30.174Z,6.07
2019-03-06T00:16:30.188Z,6.01
2019-03-06T00:17:30.158Z,5.93
2019-03-06T00:18:30.145Z,5.97
2019-03-06T00:19:30.141Z,5.93
2019-03-06T00:20:30.130Z,5.97
2019-03-06T00:21:30.145Z,5.98
2019-03-06T00:22:30.104Z,5.94
2019-03-06T00:23:30.097Z,5.90
2019-03-06T00:24:30.088Z,5.89
2019-03-06T00:25:30.104Z,5.91
2019-03-06T00:26:30.081Z,5.99
2019-03-06T00:27:30.083Z,5.94
2019-03-06T00:28:30.142Z,5.94
2019-03-06T00:29:30.045Z,5.90
2019-03-06T00:30:30.031Z,5.94
2019-03-06T00:31:30.071Z,5.93
2019-03-06T00:32:30.101Z,6.07
2019-03-06T00:33:30.117Z,6.04
2019-03-06T00:34:29.993Z,6.01
2019-03-06T00:35:29.976Z,6.08
2019-03-06T00:36:30.037Z,6.02
2019-03-06T00:37:30.062Z,6.16
2019-03-06T00:38:29.982Z,6.17
2019-03-06T00:39:30.027Z,6.22
2019-03-06T00:40:29.917Z,6.22
2019-03-06T00:41:29.915Z,6.22
2019-03-06T00:42:29.921Z,6.30
2019-03-06T00:43:29.896Z,6.26
2019-03-06T00:44:29.920Z,6.26
2019-03-06T00:45:29.894Z,6.22
2019-03-06T00:46:29.950Z,6.26
2019-03-06T00:47:29.870Z,6.30
2019-03-06T00:48:29.830Z,6.28
2019-03-06T00:49:29.821Z,6.26
2019-03-06T00:50:29.817Z,6.22
2019-03-06T00:51:29.807Z,6.28
2019-03-06T00:52:29.799Z,6.28
2019-03-06T00:53:29.853Z,6.24
2019-03-06T00:54:29.775Z,6.24
2019-03-06T00:55:29.804Z,6.22
2019-03-06T00:56:29.753Z,6.31
2019-03-06T00:57:29.735Z,6.33
2019-03-06T00:58:29.726Z,6.31
2019-03-06T00:59:29.716Z,6.28
2019-03-06T01:00:29.712Z,6.20
2019-03-06T01:01:29.733Z,6.22
2019-03-06T01:02:29.684Z,6.17
2019-03-06T01:03:29.679Z,6.09
2019-03-06T01:04:29.672Z,6.08
2019-03-06T01:05:29.655Z,6.11
2019-03-06T01:06:29.676Z,6.22
2019-03-06T01:07:29.643Z,6.14
2019-03-06T01:08:29.626Z,6.26
2019-03-06T01:09:29.616Z,6.12
2019-03-06T01:10:29.603Z,6.12
2019-03-06T01:11:29.626Z,6.22
2019-03-06T01:12:29.595Z,6.19
2019-03-06T01:13:29.600Z,6.07
2019-03-06T01:14:29.593Z,5.99
2019-03-06T01:15:29.549Z,5.98
2019-03-06T01:16:29.541Z,5.91
2019-03-06T01:17:29.520Z,5.76
2019-03-06T01:18:29.536Z,5.76
2019-03-06T01:19:29.509Z,5.75
2019-03-06T01:20:29.495Z,5.73
2019-03-06T01:21:29.489Z,5.72
2019-03-06T01:22:29.480Z,5.69
2019-03-06T01:23:29.537Z,5.73
2019-03-06T01:24:29.447Z,5.75
2019-03-06T01:25:29.453Z,5.66
2019-03-06T01:26:29.433Z,5.57
2019-03-06T01:27:29.417Z,5.54
2019-03-06T01:28:29.473Z,5.48
2019-03-06T01:29:29.417Z,5.41
2019-03-06T01:30:29.396Z,5.50
2019-03-06T01:31:29.394Z,5.41
2019-03-06T01:32:29.372Z,5.47
2019-03-06T01:33:29.502Z,5.48
2019-03-06T01:34:29.388Z,5.38
2019-03-06T01:35:29.348Z,5.44
2019-03-06T01:36:30.317Z,5.44
2019-03-06T01:37:29.515Z,5.50
2019-03-06T01:38:29.346Z,5.46
2019-03-06T01:39:29.294Z,5.51
2019-03-06T01:40:29.279Z,5.51
2019-03-06T01:41:29.296Z,5.44
2019-03-06T01:42:29.289Z,5.48
2019-03-06T01:43:29.248Z,5.36
2019-03-06T01:44:29.345Z,5.36
2019-03-06T01:45:29.236Z,5.41
2019-03-06T01:46:29.220Z,5.32
2019-03-06T01:47:29.202Z,5.39
2019-03-06T01:48:29.190Z,5.39
2019-03-06T01:49:29.273Z,5.43
2019-03-06T01:50:29.187Z,5.41
2019-03-06T01:51:29.162Z,5.41
2019-03-06T01:52:29.158Z,5.36
2019-03-06T01:53:29.143Z,5.38
2019-03-06T01:54:29.189Z,5.38
2019-03-06T01:55:29.114Z,5.44
2019-03-06T01:56:29.104Z,5.50
2019-03-06T01:57:29.101Z,5.48
2019-03-06T01:58:29.086Z,5.56
2019-03-06T01:59:29.119Z,5.53
2019-03-06T02:00:29.067Z,5.44
2019-03-06T02:01:29.049Z,5.36
2019-03-06T02:02:29.034Z,5.47
2019-03-06T02:03:29.036Z,5.33
2019-03-06T02:04:29.059Z,5.39
2019-03-06T02:05:29.054Z,5.35
2019-03-06T02:06:29.007Z,5.33
2019-03-06T02:07:28.990Z,5.23
2019-03-06T02:08:28.978Z,5.25
2019-03-06T02:09:28.967Z,5.25
2019-03-06T02:10:28.971Z,5.21
2019-03-06T02:11:29.000Z,5.20
2019-03-06T02:12:28.940Z,5.25
2019-03-06T02:13:28.924Z,5.23
2019-03-06T02:14:28.913Z,5.20
2019-03-06T02:15:28.911Z,5.26
2019-03-06T02:16:28.932Z,5.21
2019-03-06T02:17:28.885Z,5.15
2019-03-06T02:18:28.878Z,5.14
2019-03-06T02:19:28.858Z,5.08
2019-03-06T02:20:28.848Z,5.10
2019-03-06T02:21:28.854Z,5.15
2019-03-06T02:22:28.822Z,5.20
2019-03-06T02:23:28.818Z,5.23
2019-03-06T02:24:28.810Z,5.26
2019-03-06T02:25:28.795Z,5.26
2019-03-06T02:26:28.828Z,5.35
2019-03-06T02:27:28.771Z,5.36
2019-03-06T02:28:28.765Z,5.36
2019-03-06T02:29:28.771Z,5.36
2019-03-06T02:30:28.748Z,5.33
2019-03-06T02:31:28.775Z,5.36
2019-03-06T02:32:28.727Z,5.38
2019-03-06T02:33:28.709Z,5.38
2019-03-06T02:34:28.706Z,5.32
2019-03-06T02:35:28.700Z,5.35
2019-03-06T02:36:28.772Z,5.39
2019-03-06T02:37:28.716Z,5.39
2019-03-06T02:38:28.673Z,5.18
2019-03-06T02:39:28.660Z,5.21
2019-03-06T02:40:28.635Z,5.23
2019-03-06T02:41:28.637Z,5.11
2019-03-06T02:42:28.623Z,5.15
2019-03-06T02:43:28.637Z,5.10
2019-03-06T02:44:28.599Z,5.11
2019-03-06T02:45:28.581Z,5.11
2019-03-06T02:46:28.570Z,4.96
2019-03-06T02:47:28.605Z,5.08
2019-03-06T02:48:28.604Z,5.05
2019-03-06T02:49:28.544Z,5.00
2019-03-06T02:50:28.527Z,5.04
2019-03-06T02:51:28.514Z,5.00
2019-03-06T02:52:28.508Z,5.10
2019-03-06T02:53:28.506Z,4.97
2019-03-06T02:54:28.503Z,4.84
2019-03-06T02:55:28.483Z,4.92
2019-03-06T02:56:28.461Z,5.04
2019-03-06T02:57:28.453Z,5.04
2019-03-06T02:58:28.476Z,5.05
2019-03-06T02:59:28.424Z,4.97
2019-03-06T03:00:28.419Z,4.94
2019-03-06T03:01:28.418Z,5.05
2019-03-06T03:02:28.402Z,5.15
2019-03-06T03:03:28.393Z,5.11
2019-03-06T03:04:28.411Z,5.07
2019-03-06T03:05:28.366Z,5.10
2019-03-06T03:06:28.366Z,5.08
2019-03-06T03:07:28.350Z,5.08
2019-03-06T03:08:28.337Z,4.94
2019-03-06T03:09:28.363Z,5.05
2019-03-06T03:10:28.320Z,5.05
2019-03-06T03:11:28.295Z,5.04
2019-03-06T03:12:28.326Z,5.02
2019-03-06T03:13:28.281Z,5.10
2019-03-06T03:14:28.305Z,5.04
2019-03-06T03:15:28.258Z,5.02
2019-03-06T03:16:28.250Z,4.96
2019-03-06T03:17:28.236Z,5.10
2019-03-06T03:18:28.232Z,5.04
2019-03-06T03:19:28.251Z,5.02
2019-03-06T03:20:28.245Z,4.94
2019-03-06T03:21:28.195Z,5.02
2019-03-06T03:22:28.184Z,5.07
2019-03-06T03:23:28.172Z,5.05
2019-03-06T03:24:28.157Z,5.11
2019-03-06T03:25:28.177Z,5.07
2019-03-06T03:26:28.171Z,5.15
2019-03-06T03:27:28.132Z,5.20
2019-03-06T03:28:28.120Z,5.14
2019-03-06T03:29:28.108Z,5.15
2019-03-06T03:30:28.102Z,5.18
2019-03-06T03:31:28.114Z,5.17
2019-03-06T03:32:28.077Z,5.21
2019-03-06T03:33:28.068Z,5.14
2019-03-06T03:34:28.099Z,5.18
2019-03-06T03:35:28.090Z,5.15
2019-03-06T03:36:28.029Z,5.20
2019-03-06T03:37:28.015Z,5.18
2019-03-06T03:38:28.010Z,5.20
2019-03-06T03:39:28.004Z,5.21
2019-03-06T03:40:27.996Z,5.10
2019-03-06T03:41:28.003Z,5.07
2019-03-06T03:42:27.973Z,5.07
2019-03-06T03:43:27.953Z,5.05
2019-03-06T03:44:27.944Z,5.05
2019-03-06T03:45:27.932Z,5.05
2019-03-06T03:46:27.959Z,5.07
2019-03-06T03:47:27.919Z,5.05
2019-03-06T03:48:27.926Z,5.05
2019-03-06T03:49:28.051Z,5.04
2019-03-06T03:50:27.878Z,4.96
2019-03-06T03:51:27.871Z,5.02
2019-03-06T03:52:27.881Z,4.90
2019-03-06T03:53:27.887Z,4.84
2019-03-06T03:54:27.843Z,4.97
2019-03-06T03:55:27.829Z,5.00
2019-03-06T03:56:27.823Z,5.02
2019-03-06T03:57:27.803Z,5.02
2019-03-06T03:58:27.797Z,5.04
2019-03-06T03:59:27.820Z,5.07
2019-03-06T04:00:27.799Z,5.08
2019-03-06T04:01:27.771Z,5.11
2019-03-06T04:02:27.756Z,5.07
2019-03-06T04:03:27.773Z,5.21
2019-03-06T04:04:27.728Z,5.14
2019-03-06T04:05:27.760Z,5.23
2019-03-06T04:06:27.710Z,5.21
2019-03-06T04:07:27.697Z,5.26
2019-03-06T04:08:27.689Z,5.28
2019-03-06T04:09:27.679Z,5.23
2019-03-06T04:10:27.716Z,5.26
2019-03-06T04:11:27.664Z,5.25
2019-03-06T04:12:27.649Z,5.23
2019-03-06T04:13:27.638Z,5.17
2019-03-06T04:14:27.638Z,5.12
2019-03-06T04:15:27.654Z,5.11
2019-03-06T04:16:27.607Z,5.05
2019-03-06T04:17:27.589Z,5.14
2019-03-06T04:18:27.609Z,5.00
2019-03-06T04:19:27.572Z,5.05
2019-03-06T04:20:27.559Z,5.08
2019-03-06T04:21:27.542Z,5.05
2019-03-06T04:22:27.532Z,5.18
2019-03-06T04:23:27.527Z,5.11
2019-03-06T04:24:27.542Z,4.96
2019-03-06T04:25:27.505Z,5.07
2019-03-06T04:26:27.536Z,5.04
2019-03-06T04:27:27.511Z,5.08
2019-03-06T04:28:28.118Z,5.04
2019-03-06T04:29:27.506Z,5.07
2019-03-06T04:30:27.457Z,5.07
2019-03-06T04:31:27.440Z,5.12
2019-03-06T04:32:27.436Z,5.11
2019-03-06T04:33:27.421Z,5.18
2019-03-06T04:34:27.419Z,5.12
2019-03-06T04:35:27.445Z,5.12
2019-03-06T04:36:27.386Z,5.11
2019-03-06T04:37:27.376Z,5.10
2019-03-06T04:38:27.368Z,5.10
2019-03-06T04:39:27.353Z,5.05
2019-03-06T04:40:27.379Z,5.04
2019-03-06T04:41:27.330Z,4.94
2019-03-06T04:42:27.321Z,4.94
2019-03-06T04:43:27.314Z,4.94
2019-03-06T04:44:27.343Z,4.94
2019-03-06T04:45:27.333Z,5.04
2019-03-06T04:46:27.282Z,5.04
2019-03-06T04:47:27.265Z,5.04
2019-03-06T04:48:27.253Z,5.00
2019-03-06T04:49:27.240Z,5.05
2019-03-06T04:50:27.282Z,5.05
2019-03-06T04:51:27.231Z,5.07
2019-03-06T04:52:27.221Z,4.99
2019-03-06T04:53:27.203Z,4.93
2019-03-06T04:54:27.194Z,4.92
2019-03-06T04:55:27.184Z,4.84
2019-03-06T04:56:27.224Z,4.93
2019-03-06T04:57:27.169Z,4.97
2019-03-06T04:58:27.151Z,4.89
2019-03-06T04:59:27.137Z,4.97
2019-03-06T05:00:27.160Z,4.99
2019-03-06T05:01:27.116Z,5.08
2019-03-06T05:02:27.105Z,5.05
2019-03-06T05:03:27.100Z,5.08
2019-03-06T05:04:27.088Z,5.08
2019-03-06T05:05:27.131Z,4.99
2019-03-06T05:06:27.099Z,4.96
2019-03-06T05:07:27.053Z,5.02
2019-03-06T05:08:27.042Z,5.04
2019-03-06T05:09:27.036Z,4.96
2019-03-06T05:10:27.023Z,5.04
2019-03-06T05:11:27.054Z,5.00
2019-03-06T05:12:26.995Z,5.02
2019-03-06T05:13:26.988Z,5.04
2019-03-06T05:14:26.978Z,4.99
2019-03-06T05:15:26.980Z,5.10
2019-03-06T05:16:26.995Z,5.10
2019-03-06T05:17:26.953Z,5.15
2019-03-06T05:18:26.938Z,4.93
2019-03-06T05:19:26.919Z,5.02
2019-03-06T05:20:26.909Z,5.14
2019-03-06T05:21:26.903Z,5.10
2019-03-06T05:22:26.937Z,5.08
2019-03-06T05:23:26.884Z,5.10
2019-03-06T05:24:26.871Z,5.11
2019-03-06T05:25:26.861Z,5.11
2019-03-06T05:26:26.846Z,5.11
2019-03-06T05:27:26.863Z,5.04
2019-03-06T05:28:26.828Z,5.05
2019-03-06T05:29:26.821Z,5.10
2019-03-06T05:30:26.814Z,5.07
2019-03-06T05:31:26.791Z,5.05
2019-03-06T05:32:26.815Z,5.08
2019-03-06T05:33:28.681Z,5.10
2019-03-06T05:34:26.766Z,5.10
2019-03-06T05:35:26.760Z,5.11
2019-03-06T05:36:26.748Z,4.97
2019-03-06T05:37:26.734Z,4.94
2019-03-06T05:38:26.775Z,4.78
2019-03-06T05:39:26.705Z,4.71
2019-03-06T05:40:26.699Z,4.80
2019-03-06T05:41:26.692Z,4.77
2019-03-06T05:42:26.682Z,4.78
2019-03-06T05:43:26.703Z,4.75
2019-03-06T05:44:26.653Z,4.66
2019-03-06T05:45:26.641Z,4.59
2019-03-06T05:46:26.631Z,4.59
2019-03-06T05:47:26.626Z,4.48
2019-03-06T05:48:26.614Z,4.49
2019-03-06T05:49:26.625Z,4.59
2019-03-06T05:50:26.598Z,4.50
2019-03-06T05:51:26.579Z,4.50
2019-03-06T05:52:26.568Z,4.49
2019-03-06T05:53:26.559Z,4.48
2019-03-06T05:54:26.570Z,4.50
2019-03-06T05:55:26.540Z,4.50
2019-03-06T05:56:26.533Z,4.35
2019-03-06T05:57:26.513Z,4.32
2019-03-06T05:58:26.503Z,4.26
2019-03-06T05:59:26.531Z,4.08
2019-03-06T06:00:26.493Z,4.24
2019-03-06T06:01:26.477Z,4.24
2019-03-06T06:02:27.981Z,4.19
2019-03-06T06:03:26.450Z,4.30
2019-03-06T06:04:26.459Z,4.32
2019-03-06T06:05:26.438Z,4.37
2019-03-06T06:06:26.417Z,4.38
2019-03-06T06:07:26.411Z,4.32
2019-03-06T06:08:26.398Z,4.13
2019-03-06T06:09:26.427Z,4.12
2019-03-06T06:10:26.427Z,4.13
2019-03-06T06:11:26.400Z,4.26
2019-03-06T06:12:26.351Z,4.24
2019-03-06T06:13:26.348Z,4.31
2019-03-06T06:14:26.339Z,4.42
2019-03-06T06:15:26.370Z,4.42
2019-03-06T06:16:26.309Z,4.48
2019-03-06T06:17:26.298Z,4.45
2019-03-06T06:18:26.291Z,4.52
2019-03-06T06:19:26.288Z,4.52
2019-03-06T06:20:26.294Z,4.60
2019-03-06T06:21:26.265Z,4.67
2019-03-06T06:22:26.250Z,4.68
2019-03-06T06:23:26.280Z,4.70
2019-03-06T06:24:26.277Z,4.67
2019-03-06T06:25:26.221Z,4.77
2019-03-06T06:26:26.231Z,4.73
2019-03-06T06:27:26.198Z,4.75
2019-03-06T06:28:26.186Z,4.77
2019-03-06T06:30:22.067Z,4.68
2019-03-06T06:31:20.464Z,4.68
2019-03-06T06:32:20.500Z,4.75
2019-03-06T06:33:20.444Z,4.78
2019-03-06T06:34:20.445Z,4.80
2019-03-06T06:35:20.429Z,4.63
2019-03-06T06:36:20.414Z,4.73
2019-03-06T06:37:20.456Z,4.62
2019-03-06T06:38:20.389Z,4.44
2019-03-06T06:39:20.378Z,4.40
2019-03-06T06:40:29.668Z,4.35
2019-03-06T06:41:30.710Z,4.30
2019-03-06T06:42:20.385Z,4.37
2019-03-06T06:43:20.387Z,4.37
2019-03-06T06:44:20.334Z,4.40
2019-03-06T06:45:20.321Z,4.41
2019-03-06T06:46:20.303Z,4.35
2019-03-06T06:47:20.296Z,4.48
2019-03-06T06:48:20.307Z,4.49
2019-03-06T06:49:20.272Z,4.55
2019-03-06T06:50:20.267Z,4.62
2019-03-06T06:51:20.257Z,4.59
2019-03-06T06:52:20.239Z,4.66
2019-03-06T06:53:20.266Z,4.71
2019-03-06T06:54:20.226Z,4.71
2019-03-06T06:55:20.215Z,4.67
2019-03-06T06:56:20.202Z,4.74
2019-03-06T06:57:20.196Z,4.74
2019-03-06T06:58:20.219Z,4.84
2019-03-06T06:59:20.167Z,4.87
2019-03-06T07:00:20.160Z,4.86
2019-03-06T07:01:20.152Z,4.97
2019-03-06T07:02:20.137Z,5.04
2019-03-06T07:03:22.278Z,5.04
2019-03-06T07:04:20.224Z,5.10
2019-03-06T07:05:20.114Z,5.11
2019-03-06T07:06:20.092Z,5.11
2019-03-06T07:07:20.093Z,5.23
2019-03-06T07:08:20.082Z,5.30
2019-03-06T07:09:20.112Z,5.32
2019-03-06T07:10:20.092Z,5.38
2019-03-06T07:11:20.035Z,5.48
2019-03-06T07:12:20.027Z,5.46
2019-03-06T07:13:20.011Z,5.47
2019-03-06T07:14:20.011Z,5.48
2019-03-06T07:15:20.079Z,5.48
2019-03-06T07:16:19.988Z,5.43
2019-03-06T07:17:19.979Z,5.35
2019-03-06T07:18:19.959Z,5.38
2019-03-06T07:19:19.951Z,5.38
2019-03-06T07:20:19.979Z,5.36
2019-03-06T07:21:19.962Z,5.44
2019-03-06T07:22:19.955Z,5.32
2019-03-06T07:23:19.919Z,5.30
2019-03-06T07:24:19.896Z,5.43
2019-03-06T07:25:19.932Z,5.32
2019-03-06T07:26:19.879Z,5.30
2019-03-06T07:29:57.583Z,5.39
2019-03-06T07:30:57.605Z,5.33
2019-03-06T07:31:57.560Z,5.32
2019-03-06T07:32:57.565Z,5.38
2019-03-06T07:33:57.529Z,5.35
2019-03-06T07:34:57.558Z,5.35
2019-03-06T07:35:57.558Z,5.33
2019-03-06T07:36:57.522Z,5.46
2019-03-06T07:37:57.488Z,5.57
2019-03-06T07:38:57.480Z,5.62
2019-03-06T07:39:57.476Z,5.66
2019-03-06T07:40:57.470Z,5.76
2019-03-06T07:41:57.515Z,5.76
2019-03-06T07:42:57.455Z,5.76
2019-03-06T07:43:57.426Z,5.84
2019-03-06T07:44:57.432Z,5.97
2019-03-06T07:45:57.410Z,6.01
2019-03-06T07:46:57.434Z,6.20
2019-03-06T07:47:57.388Z,6.09
2019-03-06T07:48:57.395Z,6.24
2019-03-06T07:49:57.375Z,6.48
2019-03-06T07:50:57.358Z,6.51
2019-03-06T07:51:57.395Z,6.56
2019-03-06T07:52:57.332Z,6.60
2019-03-06T07:53:57.399Z,6.60
2019-03-06T07:54:57.326Z,6.46
2019-03-06T07:55:57.303Z,6.48
2019-03-06T07:56:59.293Z,6.56
2019-03-06T07:57:57.286Z,6.46
2019-03-06T07:58:57.272Z,6.49
2019-03-06T07:59:57.279Z,6.56
2019-03-06T08:00:57.267Z,6.57
2019-03-06T08:01:57.259Z,6.60
2019-03-06T08:02:57.295Z,6.54
2019-03-06T08:03:57.223Z,6.56
2019-03-06T08:04:57.227Z,6.51
2019-03-06T08:05:57.204Z,6.56
2019-03-06T08:06:57.190Z,6.46
2019-03-06T08:07:58.329Z,6.57
2019-03-06T08:08:57.173Z,6.63
2019-03-06T08:09:57.162Z,6.66
2019-03-06T08:10:57.146Z,6.60
2019-03-06T08:11:57.146Z,6.75
2019-03-06T08:12:57.174Z,6.66
2019-03-06T08:13:57.120Z,6.78
2019-03-06T08:14:57.162Z,6.84
2019-03-06T08:15:57.102Z,6.88
2019-03-06T08:16:57.148Z,6.89
2019-03-06T08:17:57.073Z,6.92
2019-03-06T08:18:57.060Z,6.85
2019-03-06T08:19:57.051Z,6.97
2019-03-06T08:20:57.082Z,7.02
2019-03-06T08:21:57.033Z,7.00
2019-03-06T08:22:57.025Z,6.99
2019-03-06T08:23:56.999Z,6.95
2019-03-06T08:24:57.025Z,6.97
2019-03-06T08:25:57.007Z,6.95
2019-03-06T08:26:56.975Z,7.03
2019-03-06T08:27:56.968Z,7.18
2019-03-06T08:28:56.955Z,7.21
2019-03-06T08:29:56.959Z,7.28
2019-03-06T08:30:56.961Z,7.31
2019-03-06T08:31:56.925Z,7.38
2019-03-06T08:32:56.910Z,7.43
2019-03-06T08:33:56.922Z,7.42
2019-03-06T08:34:56.899Z,7.72
2019-03-06T08:35:56.922Z,7.76
2019-03-06T08:36:56.864Z,7.97
2019-03-06T08:37:56.854Z,8.15
2019-03-06T08:38:56.840Z,8.13
2019-03-06T08:39:56.847Z,8.34
2019-03-06T08:41:03.850Z,8.55
2019-03-06T08:41:57.827Z,8.63
2019-03-06T08:42:56.813Z,8.78
2019-03-06T08:43:56.793Z,9.03
2019-03-06T08:44:56.785Z,9.10
2019-03-06T08:45:56.833Z,9.47
2019-03-06T08:46:56.762Z,9.68
2019-03-06T08:47:56.747Z,9.86
2019-03-06T08:48:56.736Z,10.01
2019-03-06T08:49:56.730Z,10.07
2019-03-06T08:50:56.765Z,10.35
2019-03-06T08:51:56.711Z,10.12
2019-03-06T08:52:58.762Z,10.20
2019-03-06T08:53:56.685Z,10.30
2019-03-06T08:54:56.681Z,10.72
2019-03-06T08:55:56.724Z,10.93
2019-03-06T08:56:56.661Z,11.04
2019-03-06T08:57:56.650Z,12.47
2019-03-06T08:58:56.641Z,13.70
2019-03-06T08:59:56.615Z,14.30
2019-03-06T09:00:56.607Z,15.88
2019-03-06T09:02:00.496Z,17.04
2019-03-06T09:02:56.604Z,16.91
2019-03-06T09:03:56.580Z,17.56
2019-03-06T09:04:56.638Z,16.99
2019-03-06T09:05:56.593Z,17.24
2019-03-06T09:06:56.586Z,18.01
2019-03-06T09:07:56.550Z,18.92
2019-03-06T09:08:56.521Z,19.41
2019-03-06T09:09:56.517Z,19.96
2019-03-06T09:11:02.833Z,20.03
2019-03-06T09:11:57.543Z,20.16
2019-03-06T09:12:56.498Z,20.02
2019-03-06T09:13:56.472Z,20.48
2019-03-06T09:14:56.455Z,20.80
2019-03-06T09:15:56.474Z,20.97
2019-03-06T09:16:56.447Z,20.88
2019-03-06T09:17:56.486Z,21.45
2019-03-06T09:18:56.432Z,21.66
2019-03-06T09:19:56.419Z,21.85
2019-03-06T09:20:56.456Z,21.80
2019-03-06T09:21:56.412Z,21.50
2019-03-06T09:22:56.377Z,21.51
2019-03-06T09:23:56.371Z,21.83
2019-03-06T09:24:56.355Z,22.11
2019-03-06T09:25:56.371Z,21.96
2019-03-06T09:26:56.335Z,21.60
2019-03-06T09:27:56.370Z,21.12
2019-03-06T09:29:00.936Z,20.85
2019-03-06T09:29:57.307Z,20.43
2019-03-06T09:30:56.296Z,20.07
2019-03-06T09:31:56.301Z,20.11
2019-03-06T09:32:56.312Z,19.56
2019-03-06T09:33:56.256Z,19.24
2019-03-06T09:34:56.258Z,19.21
2019-03-06T09:35:56.254Z,18.70
2019-03-06T09:36:56.236Z,18.60
2019-03-06T09:37:56.253Z,18.66
2019-03-06T09:38:56.232Z,18.66
2019-03-06T09:39:56.215Z,18.62
2019-03-06T09:40:56.180Z,18.86
2019-03-06T09:41:56.228Z,18.88
2019-03-06T09:42:56.198Z,18.53
2019-03-06T09:43:56.157Z,17.68
2019-03-06T09:44:56.165Z,17.48
2019-03-06T09:45:56.166Z,17.51
2019-03-06T09:46:56.127Z,17.76
2019-03-06T09:47:56.150Z,18.03
2019-03-06T09:48:56.103Z,18.05
2019-03-06T09:49:56.099Z,18.03
2019-03-06T09:50:56.146Z,17.83
2019-03-06T09:51:56.061Z,17.70
2019-03-06T09:52:56.098Z,17.78
2019-03-06T09:53:56.044Z,17.57
2019-03-06T09:54:56.043Z,17.08
2019-03-06T09:55:56.033Z,17.11
2019-03-06T09:56:56.027Z,17.54
2019-03-06T09:57:56.026Z,17.90
2019-03-06T09:58:56.040Z,18.33
2019-03-06T09:59:55.983Z,18.95
2019-03-06T10:00:55.973Z,18.93
2019-03-06T10:01:55.968Z,19.34
2019-03-06T10:02:55.999Z,19.21
2019-03-06T10:03:55.982Z,19.33
2019-03-06T10:04:55.929Z,19.58
2019-03-06T10:05:55.921Z,19.48
2019-03-06T10:06:55.905Z,19.73
2019-03-06T10:07:55.964Z,20.28
2019-03-06T10:08:55.926Z,20.70
2019-03-06T10:09:59.142Z,20.99
2019-03-06T10:10:57.808Z,21.35
2019-03-06T10:11:55.859Z,21.46
2019-03-06T10:12:55.849Z,21.73
2019-03-06T10:13:55.876Z,21.75
2019-03-06T10:14:55.859Z,21.46
2019-03-06T10:15:55.826Z,20.95
2019-03-06T10:16:55.807Z,20.80
2019-03-06T10:17:55.788Z,20.47
2019-03-06T10:18:55.823Z,19.63
2019-03-06T10:19:55.775Z,18.73
2019-03-06T10:20:55.760Z,17.87
2019-03-06T10:21:59.078Z,17.16
2019-03-06T10:22:59.610Z,16.87
2019-03-06T10:23:55.731Z,16.42
2019-03-06T10:24:55.814Z,16.16
2019-03-06T10:25:55.701Z,16.09
2019-03-06T10:26:55.695Z,15.90
2019-03-06T10:27:59.210Z,15.47
2019-03-06T10:28:56.673Z,15.24
2019-03-06T10:29:55.723Z,15.44
2019-03-06T10:31:02.399Z,15.39
2019-03-06T10:31:56.697Z,15.28
2019-03-06T10:32:55.630Z,15.18
2019-03-06T10:33:55.619Z,15.19
2019-03-06T10:34:55.652Z,14.92
2019-03-06T10:35:55.608Z,14.92
2019-03-06T10:36:55.593Z,14.79
2019-03-06T10:37:55.582Z,14.70
2019-03-06T10:38:55.560Z,14.85
2019-03-06T10:39:55.595Z,14.73
2019-03-06T10:40:55.551Z,14.65
2019-03-06T10:41:55.541Z,14.66
2019-03-06T10:42:55.532Z,14.45
2019-03-06T10:43:55.512Z,14.62
2019-03-06T10:44:55.498Z,14.53
2019-03-06T10:45:55.526Z,14.79
2019-03-06T10:46:55.482Z,14.97
2019-03-06T10:47:55.484Z,15.02
2019-03-06T10:48:55.463Z,14.86
2019-03-06T10:49:55.449Z,14.78
2019-03-06T10:50:55.478Z,14.86
2019-03-06T10:51:55.448Z,14.79
2019-03-06T10:52:55.422Z,14.44
2019-03-06T10:53:55.408Z,14.25
2019-03-06T10:54:55.398Z,14.14
2019-03-06T10:55:55.380Z,13.96
2019-03-06T10:56:55.410Z,13.87
2019-03-06T10:57:55.364Z,14.12
2019-03-06T10:58:55.362Z,14.29
2019-03-06T10:59:55.344Z,14.22
2019-03-06T11:00:55.335Z,14.26
2019-03-06T11:01:55.325Z,14.07
2019-03-06T11:02:56.924Z,14.07
2019-03-06T11:03:55.296Z,14.00
2019-03-06T11:04:55.346Z,13.68
2019-03-06T11:05:55.288Z,13.68
2019-03-06T11:06:55.310Z,13.65
2019-03-06T11:07:55.263Z,13.71
2019-03-06T11:08:55.245Z,13.78
2019-03-06T11:09:55.257Z,13.63
2019-03-06T11:10:55.227Z,13.56
2019-03-06T11:11:55.215Z,13.54
2019-03-06T11:12:55.250Z,13.56
2019-03-06T11:13:55.195Z,13.54
2019-03-06T11:14:55.182Z,13.46
2019-03-06T11:15:56.056Z,13.41
2019-03-06T11:16:55.157Z,13.57
2019-03-06T11:17:55.178Z,13.59
2019-03-06T11:18:55.139Z,13.56
2019-03-06T11:19:55.130Z,13.52
2019-03-06T11:20:55.124Z,13.71
2019-03-06T11:21:55.106Z,13.63
2019-03-06T11:22:55.091Z,13.63
2019-03-06T11:23:55.123Z,13.63
2019-03-06T11:24:55.076Z,13.53
2019-03-06T11:25:55.070Z,13.70
2019-03-06T11:26:55.054Z,13.59
2019-03-06T11:27:55.038Z,13.23
2019-03-06T11:28:55.058Z,13.28
2019-03-06T11:29:55.025Z,13.39
2019-03-06T11:30:55.008Z,13.41
2019-03-06T11:31:55.005Z,13.41
2019-03-06T11:32:55.008Z,13.38
2019-03-06T11:33:54.982Z,13.50
2019-03-06T11:34:55.021Z,13.41
2019-03-06T11:35:54.961Z,13.37
2019-03-06T11:36:54.956Z,13.46
2019-03-06T11:37:54.938Z,13.41
2019-03-06T11:38:54.934Z,13.49
2019-03-06T11:39:54.942Z,13.53
2019-03-06T11:40:54.902Z,13.53
2019-03-06T11:41:54.902Z,13.41
2019-03-06T11:42:54.881Z,13.37
2019-03-06T11:43:54.882Z,13.35
2019-03-06T11:44:54.892Z,13.31
2019-03-06T11:45:54.861Z,13.30
2019-03-06T11:46:54.879Z,13.42
2019-03-06T11:47:54.825Z,13.49
2019-03-06T11:48:54.813Z,13.41
2019-03-06T11:49:54.828Z,13.38
2019-03-06T11:50:54.844Z,13.15
2019-03-06T11:51:54.796Z,13.16
2019-03-06T11:52:54.787Z,13.11
2019-03-06T11:53:54.806Z,13.15
2019-03-06T11:54:54.756Z,13.15
2019-03-06T11:55:54.775Z,13.20
2019-03-06T11:56:54.746Z,13.28
2019-03-06T11:57:54.730Z,13.23
2019-03-06T11:58:54.749Z,13.11
2019-03-06T11:59:54.703Z,13.09
2019-03-06T12:00:54.690Z,13.39
2019-03-06T12:01:54.717Z,13.50
2019-03-06T12:02:54.726Z,13.57
2019-03-06T12:03:54.664Z,13.49
2019-03-06T12:04:54.651Z,13.52
2019-03-06T12:05:54.651Z,13.59
2019-03-06T12:06:54.634Z,13.71
2019-03-06T12:07:54.669Z,13.75
2019-03-06T12:08:54.639Z,13.89
2019-03-06T12:09:54.602Z,13.83
2019-03-06T12:10:54.591Z,13.83
2019-03-06T12:11:54.572Z,13.81
2019-03-06T12:12:54.603Z,13.71
2019-03-06T12:13:54.557Z,13.72
2019-03-06T12:14:54.610Z,13.65
2019-03-06T12:15:54.536Z,13.49
2019-03-06T12:16:54.562Z,13.35
2019-03-06T12:17:54.512Z,13.25
2019-03-06T12:18:54.563Z,13.22
2019-03-06T12:19:54.495Z,13.31
2019-03-06T12:20:54.476Z,13.37
2019-03-06T12:21:54.464Z,13.35
2019-03-06T12:22:54.458Z,13.41
2019-03-06T12:23:54.481Z,13.44
2019-03-06T12:24:54.465Z,13.41
2019-03-06T12:25:54.447Z,13.52
2019-03-06T12:26:54.419Z,13.49
2019-03-06T12:27:54.415Z,13.38
2019-03-06T12:28:54.428Z,13.30
2019-03-06T12:30:03.597Z,13.25
2019-03-06T12:30:55.041Z,13.13
2019-03-06T12:31:54.373Z,13.08
2019-03-06T12:32:54.492Z,13.13
2019-03-06T12:33:54.369Z,13.15
2019-03-06T12:34:54.420Z,13.20
2019-03-06T12:35:54.321Z,13.27
2019-03-06T12:36:54.324Z,13.28
2019-03-06T12:37:55.311Z,13.20
2019-03-06T12:38:54.289Z,13.23
2019-03-06T12:39:55.118Z,13.19
2019-03-06T12:40:54.272Z,13.25
2019-03-06T12:41:54.290Z,13.28
2019-03-06T12:42:54.239Z,13.30
2019-03-06T12:43:54.310Z,13.35
2019-03-06T12:44:54.263Z,13.38
2019-03-06T12:45:54.291Z,13.41
2019-03-06T12:46:54.244Z,13.42
2019-03-06T12:47:55.640Z,13.39
2019-03-06T12:48:54.183Z,13.44
2019-03-06T12:49:54.174Z,13.37
2019-03-06T12:50:56.339Z,13.47
2019-03-06T12:51:54.848Z,13.38
2019-03-06T12:52:54.147Z,13.35
2019-03-06T12:53:54.156Z,13.46
2019-03-06T12:54:54.123Z,13.54
2019-03-06T12:55:54.128Z,13.68
2019-03-06T12:56:54.090Z,13.86
2019-03-06T12:57:59.280Z,13.93
2019-03-06T12:58:55.078Z,14.03
2019-03-06T12:59:54.069Z,13.96
2019-03-06T13:00:54.054Z,13.96
2019-03-06T13:01:54.076Z,13.77
2019-03-06T13:02:54.048Z,13.81
2019-03-06T13:03:54.014Z,13.68
2019-03-06T13:04:54.705Z,13.77
2019-03-06T13:05:54.086Z,13.68
2019-03-06T13:06:54.061Z,13.72
2019-03-06T13:07:54.068Z,13.68
2019-03-06T13:08:56.300Z,13.72
2019-03-06T13:09:54.060Z,13.86
2019-03-06T13:10:53.995Z,13.79
2019-03-06T13:11:53.969Z,13.83
2019-03-06T13:12:54.791Z,13.70